sensor_id;sensor_type;location;lat;lon;timestamp;pressure;altitude;pressure_sealevel;temperature;humidity
8069;BME280;4077;43.702;24.896;2022-07-29T00:02:12;99494.25;;;22.32;100.00
8069;BME280;4077;43.702;24.896;2022-07-29T00:04:38;99487.28;;;22.31;100.00
8069;BME280;4077;43.702;24.896;2022-07-29T00:07:04;99496.41;;;22.21;100.00
8069;BME280;4077;43.702;24.896;2022-07-29T00:09:30;99495.50;;;22.22;100.00
8069;BME280;4077;43.702;24.896;2022-07-29T00:11:59;99495.28;;;22.28;100.00
8069;BME280;4077;43.702;24.896;2022-07-29T00:14:24;99494.25;;;22.32;100.00
8069;BME280;4077;43.702;24.896;2022-07-29T00:16:50;99493.41;;;22.32;100.00
8069;BME280;4077;43.702;24.896;2022-07-29T00:19:16;99489.09;;;22.29;100.00
8069;BME280;4077;43.702;24.896;2022-07-29T00:21:41;99489.31;;;22.23;100.00
8069;BME280;4077;43.702;24.896;2022-07-29T00:24:07;99496.31;;;22.24;100.00
8069;BME280;4077;43.702;24.896;2022-07-29T00:26:32;99493.56;;;22.27;100.00
8069;BME280;4077;43.702;24.896;2022-07-29T00:28:59;99489.94;;;22.31;100.00
8069;BME280;4077;43.702;24.896;2022-07-29T00:31:25;99495.41;;;22.25;100.00
8069;BME280;4077;43.702;24.896;2022-07-29T00:33:51;99503.84;;;22.10;100.00
8069;BME280;4077;43.702;24.896;2022-07-29T00:36:16;99495.97;;;22.10;100.00
8069;BME280;4077;43.702;24.896;2022-07-29T00:38:42;99496.63;;;22.15;100.00
8069;BME280;4077;43.702;24.896;2022-07-29T00:41:10;99491.44;;;22.14;100.00
8069;BME280;4077;43.702;24.896;2022-07-29T00:43:36;99493.59;;;22.01;100.00
8069;BME280;4077;43.702;24.896;2022-07-29T00:46:01;99495.53;;;21.96;100.00
8069;BME280;4077;43.702;24.896;2022-07-29T00:48:27;99491.16;;;21.96;100.00
8069;BME280;4077;43.702;24.896;2022-07-29T00:50:52;99497.69;;;21.84;100.00
8069;BME280;4077;43.702;24.896;2022-07-29T00:53:19;99494.25;;;21.82;100.00
8069;BME280;4077;43.702;24.896;2022-07-29T00:55:45;99500.66;;;21.74;100.00
8069;BME280;4077;43.702;24.896;2022-07-29T00:58:12;99487.53;;;21.49;100.00
8069;BME280;4077;43.702;24.896;2022-07-29T01:00:38;99485.09;;;21.43;100.00
8069;BME280;4077;43.702;24.896;2022-07-29T01:03:06;99494.75;;;21.42;100.00
8069;BME280;4077;43.702;24.896;2022-07-29T01:05:32;99494.56;;;21.47;100.00
8069;BME280;4077;43.702;24.896;2022-07-29T01:07:58;99493.38;;;21.57;100.00
8069;BME280;4077;43.702;24.896;2022-07-29T01:10:25;99486.75;;;21.45;100.00
8069;BME280;4077;43.702;24.896;2022-07-29T01:12:52;99485.09;;;21.43;100.00
8069;BME280;4077;43.702;24.896;2022-07-29T01:15:20;99482.91;;;21.55;100.00
8069;BME280;4077;43.702;24.896;2022-07-29T01:17:52;99490.41;;;21.66;100.00
8069;BME280;4077;43.702;24.896;2022-07-29T01:26:02;99472.00;;;21.41;100.00
8069;BME280;4077;43.702;24.896;2022-07-29T01:31:43;99468.94;;;21.28;100.00
8069;BME280;4077;43.702;24.896;2022-07-29T01:34:17;99474.13;;;21.30;100.00
8069;BME280;4077;43.702;24.896;2022-07-29T01:36:54;99476.13;;;21.22;100.00
8069;BME280;4077;43.702;24.896;2022-07-29T01:39:28;99478.63;;;21.25;100.00
8069;BME280;4077;43.702;24.896;2022-07-29T01:44:31;99466.66;;;21.16;100.00
8069;BME280;4077;43.702;24.896;2022-07-29T01:47:04;99456.50;;;21.06;100.00
8069;BME280;4077;43.702;24.896;2022-07-29T01:49:35;99470.69;;;21.26;100.00
8069;BME280;4077;43.702;24.896;2022-07-29T01:52:08;99468.19;;;21.23;100.00
8069;BME280;4077;43.702;24.896;2022-07-29T01:54:39;99465.84;;;21.14;100.00
8069;BME280;4077;43.702;24.896;2022-07-29T01:57:09;99452.72;;;21.14;100.00
8069;BME280;4077;43.702;24.896;2022-07-29T01:59:37;99447.38;;;21.17;100.00
8069;BME280;4077;43.702;24.896;2022-07-29T02:02:04;99455.56;;;21.08;100.00
8069;BME280;4077;43.702;24.896;2022-07-29T02:04:36;99458.38;;;21.02;100.00
8069;BME280;4077;43.702;24.896;2022-07-29T02:07:05;99456.53;;;21.04;100.00
8069;BME280;4077;43.702;24.896;2022-07-29T02:09:34;99452.69;;;21.16;100.00
8069;BME280;4077;43.702;24.896;2022-07-29T02:12:03;99459.31;;;21.27;100.00
8069;BME280;4077;43.702;24.896;2022-07-29T02:14:35;99442.00;;;21.20;100.00
8069;BME280;4077;43.702;24.896;2022-07-29T02:17:01;99458.13;;;21.10;100.00
8069;BME280;4077;43.702;24.896;2022-07-29T02:19:29;99450.69;;;20.96;100.00
8069;BME280;4077;43.702;24.896;2022-07-29T02:21:57;99452.25;;;21.01;100.00
8069;BME280;4077;43.702;24.896;2022-07-29T02:24:24;99447.50;;;20.86;100.00
8069;BME280;4077;43.702;24.896;2022-07-29T02:26:52;99449.16;;;20.89;100.00
8069;BME280;4077;43.702;24.896;2022-07-29T02:29:21;99443.13;;;20.87;100.00
8069;BME280;4077;43.702;24.896;2022-07-29T02:31:49;99450.50;;;20.74;100.00
8069;BME280;4077;43.702;24.896;2022-07-29T02:34:17;99454.53;;;20.84;100.00
8069;BME280;4077;43.702;24.896;2022-07-29T02:36:44;99453.50;;;20.90;100.00
8069;BME280;4077;43.702;24.896;2022-07-29T02:39:11;99456.66;;;21.01;100.00
8069;BME280;4077;43.702;24.896;2022-07-29T02:41:50;99455.03;;;20.97;100.00
8069;BME280;4077;43.702;24.896;2022-07-29T02:44:22;99452.41;;;20.97;100.00
8069;BME280;4077;43.702;24.896;2022-07-29T02:49:40;99463.69;;;20.99;100.00
8069;BME280;4077;43.702;24.896;2022-07-29T02:54:55;99449.22;;;20.87;100.00
8069;BME280;4077;43.702;24.896;2022-07-29T02:59:58;99463.88;;;20.65;100.00
8069;BME280;4077;43.702;24.896;2022-07-29T03:02:25;99463.59;;;20.46;100.00
8069;BME280;4077;43.702;24.896;2022-07-29T03:04:51;99471.44;;;20.46;100.00
8069;BME280;4077;43.702;24.896;2022-07-29T03:07:18;99469.63;;;20.48;100.00
8069;BME280;4077;43.702;24.896;2022-07-29T03:09:45;99474.53;;;20.60;100.00
8069;BME280;4077;43.702;24.896;2022-07-29T03:12:11;99480.94;;;20.50;100.00
8069;BME280;4077;43.702;24.896;2022-07-29T03:14:38;99473.59;;;20.32;100.00
8069;BME280;4077;43.702;24.896;2022-07-29T03:17:03;99481.94;;;20.46;100.00
8069;BME280;4077;43.702;24.896;2022-07-29T03:19:29;99477.22;;;20.57;100.00
8069;BME280;4077;43.702;24.896;2022-07-29T03:21:57;99490.84;;;20.70;100.00
8069;BME280;4077;43.702;24.896;2022-07-29T03:24:30;99492.50;;;20.72;100.00
8069;BME280;4077;43.702;24.896;2022-07-29T03:26:56;99483.94;;;20.67;100.00
8069;BME280;4077;43.702;24.896;2022-07-29T03:29:22;99484.09;;;20.61;100.00
8069;BME280;4077;43.702;24.896;2022-07-29T03:31:47;99484.28;;;20.55;100.00
8069;BME280;4077;43.702;24.896;2022-07-29T03:34:13;99489.66;;;20.51;100.00
8069;BME280;4077;43.702;24.896;2022-07-29T03:36:38;99486.28;;;20.47;100.00
8069;BME280;4077;43.702;24.896;2022-07-29T03:39:05;99490.66;;;20.46;100.00
8069;BME280;4077;43.702;24.896;2022-07-29T03:41:31;99491.56;;;20.44;100.00
8069;BME280;4077;43.702;24.896;2022-07-29T03:43:58;99488.31;;;20.36;100.00
8069;BME280;4077;43.702;24.896;2022-07-29T03:46:26;99481.50;;;20.29;100.00
8069;BME280;4077;43.702;24.896;2022-07-29T03:48:57;99482.63;;;20.20;100.00
8069;BME280;4077;43.702;24.896;2022-07-29T03:51:25;99494.72;;;20.26;100.00
8069;BME280;4077;43.702;24.896;2022-07-29T03:53:51;99495.53;;;20.28;100.00
8069;BME280;4077;43.702;24.896;2022-07-29T03:56:19;99491.19;;;20.27;100.00
8069;BME280;4077;43.702;24.896;2022-07-29T03:58:46;99490.28;;;20.28;100.00
8069;BME280;4077;43.702;24.896;2022-07-29T04:01:13;99489.47;;;20.26;100.00
8069;BME280;4077;43.702;24.896;2022-07-29T04:03:38;99498.19;;;20.26;100.00
8069;BME280;4077;43.702;24.896;2022-07-29T04:06:05;99505.09;;;20.29;100.00
8069;BME280;4077;43.702;24.896;2022-07-29T04:08:32;99503.66;;;20.18;100.00
8069;BME280;4077;43.702;24.896;2022-07-29T04:10:58;99505.84;;;20.34;100.00
8069;BME280;4077;43.702;24.896;2022-07-29T04:13:24;99502.09;;;20.42;100.00
8069;BME280;4077;43.702;24.896;2022-07-29T04:15:49;99501.16;;;20.46;100.00
8069;BME280;4077;43.702;24.896;2022-07-29T04:18:15;99501.16;;;20.45;100.00
8069;BME280;4077;43.702;24.896;2022-07-29T04:20:40;99499.13;;;20.56;100.00
8069;BME280;4077;43.702;24.896;2022-07-29T04:23:06;99494.41;;;20.67;100.00
8069;BME280;4077;43.702;24.896;2022-07-29T04:25:31;99504.63;;;20.76;100.00
8069;BME280;4077;43.702;24.896;2022-07-29T04:27:56;99504.50;;;20.81;100.00
8069;BME280;4077;43.702;24.896;2022-07-29T04:30:29;99499.03;;;20.89;100.00
8069;BME280;4077;43.702;24.896;2022-07-29T04:32:55;99491.88;;;20.94;100.00
8069;BME280;4077;43.702;24.896;2022-07-29T04:35:21;99493.41;;;21.01;100.00
8069;BME280;4077;43.702;24.896;2022-07-29T04:37:46;99511.66;;;21.04;100.00
8069;BME280;4077;43.702;24.896;2022-07-29T04:40:12;99509.91;;;21.04;100.00
8069;BME280;4077;43.702;24.896;2022-07-29T04:42:38;99507.13;;;21.09;100.00
8069;BME280;4077;43.702;24.896;2022-07-29T04:45:04;99518.06;;;21.23;100.00
8069;BME280;4077;43.702;24.896;2022-07-29T04:47:30;99509.13;;;21.30;100.00
8069;BME280;4077;43.702;24.896;2022-07-29T04:49:55;99507.03;;;21.40;100.00
8069;BME280;4077;43.702;24.896;2022-07-29T04:52:21;99508.41;;;21.52;100.00
8069;BME280;4077;43.702;24.896;2022-07-29T04:54:47;99514.19;;;21.63;100.00
8069;BME280;4077;43.702;24.896;2022-07-29T04:57:12;99517.34;;;21.73;100.00
8069;BME280;4077;43.702;24.896;2022-07-29T04:59:38;99526.19;;;21.70;100.00
8069;BME280;4077;43.702;24.896;2022-07-29T05:02:03;99512.88;;;21.76;100.00
8069;BME280;4077;43.702;24.896;2022-07-29T05:04:29;99517.53;;;21.93;100.00
8069;BME280;4077;43.702;24.896;2022-07-29T05:06:54;99522.44;;;22.04;100.00
8069;BME280;4077;43.702;24.896;2022-07-29T05:09:19;99531.03;;;22.09;100.00
8069;BME280;4077;43.702;24.896;2022-07-29T05:11:45;99530.94;;;22.12;100.00
8069;BME280;4077;43.702;24.896;2022-07-29T05:14:11;99531.72;;;22.14;100.00
8069;BME280;4077;43.702;24.896;2022-07-29T05:16:36;99533.00;;;22.27;100.00
8069;BME280;4077;43.702;24.896;2022-07-29T05:19:02;99531.88;;;22.34;100.00
8069;BME280;4077;43.702;24.896;2022-07-29T05:21:27;99535.22;;;22.39;100.00
8069;BME280;4077;43.702;24.896;2022-07-29T05:23:52;99542.06;;;22.44;100.00
8069;BME280;4077;43.702;24.896;2022-07-29T05:26:18;99537.50;;;22.49;100.00
8069;BME280;4077;43.702;24.896;2022-07-29T05:28:43;99538.41;;;22.48;100.00
8069;BME280;4077;43.702;24.896;2022-07-29T05:31:09;99539.91;;;22.55;100.00
8069;BME280;4077;43.702;24.896;2022-07-29T05:33:34;99544.16;;;22.59;100.00
8069;BME280;4077;43.702;24.896;2022-07-29T05:36:00;99565.28;;;22.56;100.00
8069;BME280;4077;43.702;24.896;2022-07-29T05:38:25;99559.81;;;22.62;100.00
8069;BME280;4077;43.702;24.896;2022-07-29T05:40:50;99559.47;;;22.71;100.00
8069;BME280;4077;43.702;24.896;2022-07-29T05:43:16;99563.41;;;22.83;100.00
8069;BME280;4077;43.702;24.896;2022-07-29T05:45:41;99577.81;;;22.98;100.00
8069;BME280;4077;43.702;24.896;2022-07-29T05:48:07;99571.16;;;23.11;100.00
8069;BME280;4077;43.702;24.896;2022-07-29T05:50:32;99575.28;;;23.18;100.00
8069;BME280;4077;43.702;24.896;2022-07-29T05:52:58;99577.59;;;23.26;100.00
8069;BME280;4077;43.702;24.896;2022-07-29T05:55:24;99568.69;;;23.30;100.00
8069;BME280;4077;43.702;24.896;2022-07-29T05:57:49;99583.38;;;23.35;100.00
8069;BME280;4077;43.702;24.896;2022-07-29T06:00:16;99581.78;;;23.31;100.00
8069;BME280;4077;43.702;24.896;2022-07-29T06:02:42;99581.44;;;23.40;100.00
8069;BME280;4077;43.702;24.896;2022-07-29T06:05:07;99585.94;;;23.59;100.00
8069;BME280;4077;43.702;24.896;2022-07-29T06:07:33;99588.81;;;23.76;100.00
8069;BME280;4077;43.702;24.896;2022-07-29T06:09:59;99591.47;;;23.96;100.00
8069;BME280;4077;43.702;24.896;2022-07-29T06:12:24;99594.00;;;24.20;100.00
8069;BME280;4077;43.702;24.896;2022-07-29T06:14:50;99599.56;;;24.34;100.00
8069;BME280;4077;43.702;24.896;2022-07-29T06:17:16;99601.16;;;24.38;100.00
8069;BME280;4077;43.702;24.896;2022-07-29T06:19:41;99596.53;;;24.43;100.00
8069;BME280;4077;43.702;24.896;2022-07-29T06:22:07;99599.81;;;24.48;100.00
8069;BME280;4077;43.702;24.896;2022-07-29T06:24:32;99608.59;;;24.49;100.00
8069;BME280;4077;43.702;24.896;2022-07-29T06:26:58;99600.81;;;24.46;100.00
8069;BME280;4077;43.702;24.896;2022-07-29T06:29:23;99604.81;;;24.54;100.00
8069;BME280;4077;43.702;24.896;2022-07-29T06:31:49;99610.44;;;24.67;100.00
8069;BME280;4077;43.702;24.896;2022-07-29T06:34:14;99619.59;;;24.79;100.00
8069;BME280;4077;43.702;24.896;2022-07-29T06:36:40;99624.34;;;24.91;100.00
8069;BME280;4077;43.702;24.896;2022-07-29T06:39:06;99619.69;;;24.96;100.00
8069;BME280;4077;43.702;24.896;2022-07-29T06:41:32;99614.81;;;25.07;100.00
8069;BME280;4077;43.702;24.896;2022-07-29T06:43:57;99620.22;;;25.23;100.00
8069;BME280;4077;43.702;24.896;2022-07-29T06:46:24;99609.66;;;25.42;100.00
8069;BME280;4077;43.702;24.896;2022-07-29T06:48:51;99613.78;;;25.48;100.00
8069;BME280;4077;43.702;24.896;2022-07-29T06:51:17;99625.06;;;25.51;100.00
8069;BME280;4077;43.702;24.896;2022-07-29T06:53:43;99613.91;;;25.63;100.00
8069;BME280;4077;43.702;24.896;2022-07-29T06:56:09;99624.91;;;25.73;100.00
8069;BME280;4077;43.702;24.896;2022-07-29T06:58:35;99615.81;;;25.79;100.00
8069;BME280;4077;43.702;24.896;2022-07-29T07:01:03;99614.06;;;25.97;100.00
8069;BME280;4077;43.702;24.896;2022-07-29T07:03:28;99606.38;;;26.09;100.00
8069;BME280;4077;43.702;24.896;2022-07-29T07:05:54;99609.31;;;26.21;100.00
8069;BME280;4077;43.702;24.896;2022-07-29T07:08:21;99605.78;;;26.22;100.00
8069;BME280;4077;43.702;24.896;2022-07-29T07:10:47;99602.47;;;26.34;100.00
8069;BME280;4077;43.702;24.896;2022-07-29T07:13:13;99613.09;;;26.51;100.00
8069;BME280;4077;43.702;24.896;2022-07-29T07:15:39;99608.22;;;26.77;100.00
8069;BME280;4077;43.702;24.896;2022-07-29T07:18:05;99608.78;;;26.99;100.00
8069;BME280;4077;43.702;24.896;2022-07-29T07:20:32;99606.59;;;27.07;100.00
8069;BME280;4077;43.702;24.896;2022-07-29T07:22:58;99612.75;;;27.23;100.00
8069;BME280;4077;43.702;24.896;2022-07-29T07:25:24;99612.94;;;27.36;100.00
8069;BME280;4077;43.702;24.896;2022-07-29T07:27:49;99614.38;;;27.42;100.00
8069;BME280;4077;43.702;24.896;2022-07-29T07:30:15;99611.91;;;27.39;100.00
8069;BME280;4077;43.702;24.896;2022-07-29T07:32:40;99615.00;;;27.47;100.00
8069;BME280;4077;43.702;24.896;2022-07-29T07:35:07;99605.75;;;27.54;100.00
8069;BME280;4077;43.702;24.896;2022-07-29T07:37:33;99613.94;;;27.65;95.45
8069;BME280;4077;43.702;24.896;2022-07-29T07:40:00;99621.66;;;27.70;94.14
8069;BME280;4077;43.702;24.896;2022-07-29T07:42:25;99618.91;;;27.56;94.15
8069;BME280;4077;43.702;24.896;2022-07-29T07:44:51;99608.50;;;27.52;96.39
8069;BME280;4077;43.702;24.896;2022-07-29T07:47:17;99611.06;;;27.54;98.00
8069;BME280;4077;43.702;24.896;2022-07-29T07:49:51;99614.56;;;27.54;96.86
8069;BME280;4077;43.702;24.896;2022-07-29T07:52:18;99612.41;;;27.61;97.60
8069;BME280;4077;43.702;24.896;2022-07-29T07:54:44;99605.00;;;27.68;94.62
8069;BME280;4077;43.702;24.896;2022-07-29T07:57:11;99609.66;;;27.78;94.92
8069;BME280;4077;43.702;24.896;2022-07-29T07:59:37;99617.03;;;27.89;95.56
8069;BME280;4077;43.702;24.896;2022-07-29T08:02:03;99598.34;;;27.91;93.54
8069;BME280;4077;43.702;24.896;2022-07-29T08:04:28;99613.00;;;28.12;91.52
8069;BME280;4077;43.702;24.896;2022-07-29T08:06:54;99613.88;;;28.13;89.31
8069;BME280;4077;43.702;24.896;2022-07-29T08:09:21;99617.38;;;28.13;87.17
8069;BME280;4077;43.702;24.896;2022-07-29T08:11:46;99600.19;;;28.04;85.19
8069;BME280;4077;43.702;24.896;2022-07-29T08:14:12;99619.66;;;28.19;85.05
8069;BME280;4077;43.702;24.896;2022-07-29T08:16:39;99618.66;;;28.22;85.28
8069;BME280;4077;43.702;24.896;2022-07-29T08:19:05;99596.56;;;28.21;83.45
8069;BME280;4077;43.702;24.896;2022-07-29T08:21:31;99615.13;;;28.51;82.41
8069;BME280;4077;43.702;24.896;2022-07-29T08:23:56;99619.00;;;28.46;82.38
8069;BME280;4077;43.702;24.896;2022-07-29T08:26:42;99622.34;;;28.49;80.69
8069;BME280;4077;43.702;24.896;2022-07-29T08:29:08;99613.91;;;28.57;80.28
8069;BME280;4077;43.702;24.896;2022-07-29T08:31:35;99611.63;;;28.65;80.08
8069;BME280;4077;43.702;24.896;2022-07-29T08:34:01;99609.72;;;28.67;78.18
8069;BME280;4077;43.702;24.896;2022-07-29T08:36:27;99607.56;;;28.74;77.83
8069;BME280;4077;43.702;24.896;2022-07-29T08:38:53;99608.59;;;28.85;75.06
8069;BME280;4077;43.702;24.896;2022-07-29T08:41:19;99603.88;;;29.05;75.22
8069;BME280;4077;43.702;24.896;2022-07-29T08:43:45;99612.44;;;29.10;74.82
8069;BME280;4077;43.702;24.896;2022-07-29T08:46:10;99609.94;;;29.21;71.66
8069;BME280;4077;43.702;24.896;2022-07-29T08:48:36;99606.84;;;29.41;71.35
8069;BME280;4077;43.702;24.896;2022-07-29T08:51:02;99604.75;;;29.47;70.13
8069;BME280;4077;43.702;24.896;2022-07-29T08:53:28;99609.84;;;29.64;68.55
8069;BME280;4077;43.702;24.896;2022-07-29T08:55:55;99611.56;;;29.65;68.60
8069;BME280;4077;43.702;24.896;2022-07-29T08:58:22;99614.66;;;29.72;68.13
8069;BME280;4077;43.702;24.896;2022-07-29T09:00:53;99607.75;;;29.69;67.36
8069;BME280;4077;43.702;24.896;2022-07-29T09:03:22;99605.94;;;29.69;66.06
8069;BME280;4077;43.702;24.896;2022-07-29T09:05:48;99598.47;;;29.62;65.79
8069;BME280;4077;43.702;24.896;2022-07-29T09:08:15;99597.38;;;29.64;65.51
8069;BME280;4077;43.702;24.896;2022-07-29T09:10:42;99602.84;;;29.49;65.38
8069;BME280;4077;43.702;24.896;2022-07-29T09:13:07;99598.00;;;29.55;65.34
8069;BME280;4077;43.702;24.896;2022-07-29T09:15:33;99600.22;;;29.76;65.49
8069;BME280;4077;43.702;24.896;2022-07-29T09:17:59;99605.19;;;29.94;64.43
8069;BME280;4077;43.702;24.896;2022-07-29T09:20:26;99596.66;;;30.02;62.60
8069;BME280;4077;43.702;24.896;2022-07-29T09:23:11;99603.06;;;30.00;62.56
8069;BME280;4077;43.702;24.896;2022-07-29T09:25:39;99602.28;;;29.97;62.15
8069;BME280;4077;43.702;24.896;2022-07-29T09:30:32;99607.63;;;30.37;59.80
8069;BME280;4077;43.702;24.896;2022-07-29T09:32:59;99597.50;;;30.42;58.56
8069;BME280;4077;43.702;24.896;2022-07-29T09:35:27;99596.88;;;30.51;58.95
8069;BME280;4077;43.702;24.896;2022-07-29T09:37:53;99595.09;;;30.77;57.66
8069;BME280;4077;43.702;24.896;2022-07-29T09:40:24;99610.34;;;31.38;56.32
8069;BME280;4077;43.702;24.896;2022-07-29T09:42:51;99601.88;;;31.80;54.59
8069;BME280;4077;43.702;24.896;2022-07-29T09:45:32;99601.75;;;32.17;52.84
8069;BME280;4077;43.702;24.896;2022-07-29T09:47:58;99614.78;;;32.68;52.00
8069;BME280;4077;43.702;24.896;2022-07-29T09:50:36;99612.97;;;33.25;46.42
8069;BME280;4077;43.702;24.896;2022-07-29T09:53:02;99608.81;;;33.54;47.46
8069;BME280;4077;43.702;24.896;2022-07-29T09:55:28;99599.88;;;33.10;48.36
8069;BME280;4077;43.702;24.896;2022-07-29T09:57:53;99592.41;;;32.47;48.58
8069;BME280;4077;43.702;24.896;2022-07-29T10:00:20;99584.34;;;31.76;50.40
8069;BME280;4077;43.702;24.896;2022-07-29T10:02:48;99568.28;;;31.41;50.58
8069;BME280;4077;43.702;24.896;2022-07-29T10:07:52;99566.41;;;31.18;49.15
8069;BME280;4077;43.702;24.896;2022-07-29T10:10:30;99568.56;;;31.13;49.35
8069;BME280;4077;43.702;24.896;2022-07-29T10:12:57;99568.56;;;31.13;49.49
8069;BME280;4077;43.702;24.896;2022-07-29T10:15:24;99563.00;;;31.28;49.23
8069;BME280;4077;43.702;24.896;2022-07-29T10:17:51;99555.75;;;31.30;48.78
8069;BME280;4077;43.702;24.896;2022-07-29T10:20:17;99559.38;;;31.29;48.68
8069;BME280;4077;43.702;24.896;2022-07-29T10:22:43;99563.22;;;31.13;47.66
8069;BME280;4077;43.702;24.896;2022-07-29T10:25:09;99553.00;;;31.07;48.19
8069;BME280;4077;43.702;24.896;2022-07-29T10:27:36;99560.31;;;31.28;48.26
8069;BME280;4077;43.702;24.896;2022-07-29T10:30:03;99562.50;;;31.47;47.72
8069;BME280;4077;43.702;24.896;2022-07-29T10:43:50;99562.38;;;31.73;43.38
8069;BME280;4077;43.702;24.896;2022-07-29T10:46:16;99549.34;;;31.81;43.93
8069;BME280;4077;43.702;24.896;2022-07-29T10:49:12;99537.25;;;31.99;41.84
8069;BME280;4077;43.702;24.896;2022-07-29T10:54:18;99542.41;;;32.13;41.33
8069;BME280;4077;43.702;24.896;2022-07-29T10:56:44;99535.81;;;32.18;41.00
8069;BME280;4077;43.702;24.896;2022-07-29T11:01:48;99538.03;;;32.12;43.05
8069;BME280;4077;43.702;24.896;2022-07-29T11:07:11;99513.06;;;32.47;42.28
8069;BME280;4077;43.702;24.896;2022-07-29T11:09:37;99528.63;;;32.42;41.82
8069;BME280;4077;43.702;24.896;2022-07-29T11:12:21;99521.53;;;32.30;40.50
8069;BME280;4077;43.702;24.896;2022-07-29T11:14:58;99515.38;;;32.41;40.39
8069;BME280;4077;43.702;24.896;2022-07-29T11:17:25;99510.13;;;32.39;40.75
8069;BME280;4077;43.702;24.896;2022-07-29T11:19:51;99507.19;;;32.31;40.65
8069;BME280;4077;43.702;24.896;2022-07-29T11:22:36;99506.34;;;32.19;39.67
8069;BME280;4077;43.702;24.896;2022-07-29T11:25:18;99506.09;;;32.22;40.44
8069;BME280;4077;43.702;24.896;2022-07-29T11:27:44;99496.13;;;32.13;39.55
8069;BME280;4077;43.702;24.896;2022-07-29T11:30:10;99505.47;;;32.19;39.73
8069;BME280;4077;43.702;24.896;2022-07-29T11:32:42;99513.06;;;32.36;39.64
8069;BME280;4077;43.702;24.896;2022-07-29T11:35:20;99527.28;;;32.48;38.60
8069;BME280;4077;43.702;24.896;2022-07-29T11:44:01;99503.94;;;32.50;37.57
8069;BME280;4077;43.702;24.896;2022-07-29T11:49:23;99504.06;;;32.59;38.04
8069;BME280;4077;43.702;24.896;2022-07-29T11:51:51;99494.00;;;32.63;37.50
8069;BME280;4077;43.702;24.896;2022-07-29T11:54:23;99496.91;;;32.49;37.49
8069;BME280;4077;43.702;24.896;2022-07-29T11:56:49;99487.31;;;32.35;37.64
8069;BME280;4077;43.702;24.896;2022-07-29T11:59:15;99469.53;;;32.23;37.93
8069;BME280;4077;43.702;24.896;2022-07-29T12:01:57;99485.19;;;32.16;38.15
8069;BME280;4077;43.702;24.896;2022-07-29T12:04:24;99473.28;;;32.09;38.01
8069;BME280;4077;43.702;24.896;2022-07-29T12:06:54;99480.19;;;32.11;38.39
8069;BME280;4077;43.702;24.896;2022-07-29T12:09:21;99475.22;;;32.18;38.17
8069;BME280;4077;43.702;24.896;2022-07-29T12:11:47;99469.16;;;32.16;37.64
8069;BME280;4077;43.702;24.896;2022-07-29T12:14:29;99455.31;;;32.11;38.25
8069;BME280;4077;43.702;24.896;2022-07-29T12:16:55;99469.78;;;32.08;38.04
8069;BME280;4077;43.702;24.896;2022-07-29T12:19:21;99466.47;;;32.05;37.82
8069;BME280;4077;43.702;24.896;2022-07-29T12:21:47;99457.75;;;32.03;38.48
8069;BME280;4077;43.702;24.896;2022-07-29T12:24:14;99455.06;;;32.03;38.74
8069;BME280;4077;43.702;24.896;2022-07-29T12:26:53;99458.72;;;32.02;38.22
8069;BME280;4077;43.702;24.896;2022-07-29T12:29:19;99453.97;;;31.94;38.16
8069;BME280;4077;43.702;24.896;2022-07-29T12:31:45;99450.31;;;31.95;38.10
8069;BME280;4077;43.702;24.896;2022-07-29T12:34:12;99442.31;;;31.95;38.23
8069;BME280;4077;43.702;24.896;2022-07-29T12:36:38;99443.41;;;31.93;36.30
8069;BME280;4077;43.702;24.896;2022-07-29T12:39:04;99433.47;;;31.95;36.19
8069;BME280;4077;43.702;24.896;2022-07-29T12:41:30;99437.94;;;31.94;36.41
8069;BME280;4077;43.702;24.896;2022-07-29T12:43:56;99438.31;;;32.01;36.74
8069;BME280;4077;43.702;24.896;2022-07-29T12:46:22;99430.91;;;31.93;38.15
8069;BME280;4077;43.702;24.896;2022-07-29T12:48:51;99416.34;;;31.97;38.18
8069;BME280;4077;43.702;24.896;2022-07-29T12:51:37;99408.22;;;31.88;38.42
8069;BME280;4077;43.702;24.896;2022-07-29T12:54:14;99407.56;;;31.84;38.01
8069;BME280;4077;43.702;24.896;2022-07-29T12:56:41;99419.47;;;31.91;37.95
8069;BME280;4077;43.702;24.896;2022-07-29T12:59:18;99413.78;;;31.96;37.79
8069;BME280;4077;43.702;24.896;2022-07-29T13:01:45;99413.31;;;32.02;38.40
8069;BME280;4077;43.702;24.896;2022-07-29T13:04:28;99399.84;;;31.92;39.71
8069;BME280;4077;43.702;24.896;2022-07-29T13:07:00;99409.41;;;31.83;39.78
8069;BME280;4077;43.702;24.896;2022-07-29T13:09:40;99401.25;;;31.74;40.00
8069;BME280;4077;43.702;24.896;2022-07-29T13:12:07;99407.56;;;31.73;39.39
8069;BME280;4077;43.702;24.896;2022-07-29T13:17:05;99399.75;;;31.70;39.36
8069;BME280;4077;43.702;24.896;2022-07-29T13:19:38;99397.34;;;31.67;39.13
8069;BME280;4077;43.702;24.896;2022-07-29T13:22:06;99400.00;;;31.67;40.02
8069;BME280;4077;43.702;24.896;2022-07-29T13:24:32;99392.00;;;31.67;42.02
8069;BME280;4077;43.702;24.896;2022-07-29T13:26:58;99395.66;;;31.66;41.88
8069;BME280;4077;43.702;24.896;2022-07-29T13:29:24;99401.00;;;31.66;41.21
8069;BME280;4077;43.702;24.896;2022-07-29T13:31:51;99367.56;;;31.49;40.40
8069;BME280;4077;43.702;24.896;2022-07-29T13:34:17;99387.75;;;31.64;40.04
8069;BME280;4077;43.702;24.896;2022-07-29T13:36:44;99379.84;;;31.63;41.33
8069;BME280;4077;43.702;24.896;2022-07-29T13:39:10;99376.59;;;31.59;42.36
8069;BME280;4077;43.702;24.896;2022-07-29T13:41:36;99376.47;;;31.61;40.43
8069;BME280;4077;43.702;24.896;2022-07-29T13:44:02;99362.63;;;31.55;41.27
8069;BME280;4077;43.702;24.896;2022-07-29T13:46:27;99369.19;;;31.51;40.01
8069;BME280;4077;43.702;24.896;2022-07-29T13:48:53;99370.16;;;31.50;40.49
8069;BME280;4077;43.702;24.896;2022-07-29T13:51:18;99364.19;;;31.47;40.43
8069;BME280;4077;43.702;24.896;2022-07-29T13:53:44;99365.50;;;31.41;40.34
8069;BME280;4077;43.702;24.896;2022-07-29T13:56:09;99359.19;;;31.31;41.03
8069;BME280;4077;43.702;24.896;2022-07-29T13:58:35;99352.88;;;31.32;41.61
8069;BME280;4077;43.702;24.896;2022-07-29T14:01:01;99349.69;;;31.27;41.63
8069;BME280;4077;43.702;24.896;2022-07-29T14:03:27;99355.16;;;31.25;42.47